sensor_id;sensor_type;location;lat;lon;timestamp;pressure;altitude;pressure_sealevel;temperature;humidity
52957;BME280;38819;42.692;23.342;2023-06-10T00:02:04;94905.56;;;19.32;75.63
52957;BME280;38819;42.692;23.342;2023-06-10T00:04:30;94907.25;;;19.37;75.62
52957;BME280;38819;42.692;23.342;2023-06-10T00:06:55;94905.28;;;19.37;75.32
52957;BME280;38819;42.692;23.342;2023-06-10T00:09:22;94907.09;;;19.30;75.58
52957;BME280;38819;42.692;23.342;2023-06-10T00:11:47;94906.31;;;19.13;76.42
52957;BME280;38819;42.692;23.342;2023-06-10T00:14:13;94902.41;;;19.14;76.81
52957;BME280;38819;42.692;23.342;2023-06-10T00:16:39;94900.47;;;19.15;76.74
52957;BME280;38819;42.692;23.342;2023-06-10T00:19:05;94894.66;;;19.16;76.01
52957;BME280;38819;42.692;23.342;2023-06-10T00:21:32;94889.69;;;19.22;75.89
52957;BME280;38819;42.692;23.342;2023-06-10T00:24:06;94897.06;;;19.37;75.45
52957;BME280;38819;42.692;23.342;2023-06-10T00:26:32;94895.31;;;19.45;75.12
52957;BME280;38819;42.692;23.342;2023-06-10T00:28:58;94893.41;;;19.49;74.93
52957;BME280;38819;42.692;23.342;2023-06-10T00:31:24;94902.59;;;19.57;74.73
52957;BME280;38819;42.692;23.342;2023-06-10T00:33:51;94903.28;;;19.70;74.51
52957;BME280;38819;42.692;23.342;2023-06-10T00:36:16;94906.25;;;19.80;74.00
52957;BME280;38819;42.692;23.342;2023-06-10T00:38:42;94898.31;;;19.75;73.54
52957;BME280;38819;42.692;23.342;2023-06-10T00:41:07;94900.13;;;19.87;73.09
52957;BME280;38819;42.692;23.342;2023-06-10T00:43:33;94907.22;;;19.88;72.91
52957;BME280;38819;42.692;23.342;2023-06-10T00:45:59;94895.44;;;19.88;72.91
52957;BME280;38819;42.692;23.342;2023-06-10T00:48:24;94900.28;;;19.94;72.65
52957;BME280;38819;42.692;23.342;2023-06-10T00:50:50;94897.19;;;19.96;72.80
52957;BME280;38819;42.692;23.342;2023-06-10T00:53:16;94894.78;;;19.94;73.06
52957;BME280;38819;42.692;23.342;2023-06-10T00:55:42;94894.44;;;19.96;73.10
52957;BME280;38819;42.692;23.342;2023-06-10T00:58:08;94894.44;;;19.96;73.29
52957;BME280;38819;42.692;23.342;2023-06-10T01:00:34;94904.25;;;19.97;72.83
52957;BME280;38819;42.692;23.342;2023-06-10T01:02:59;94906.56;;;19.95;73.15
52957;BME280;38819;42.692;23.342;2023-06-10T01:05:25;94903.00;;;19.94;73.23
52957;BME280;38819;42.692;23.342;2023-06-10T01:08:09;94904.97;;;19.94;73.05
52957;BME280;38819;42.692;23.342;2023-06-10T01:10:51;94911.75;;;20.00;73.35
52957;BME280;38819;42.692;23.342;2023-06-10T01:13:18;94916.06;;;20.01;72.85
52957;BME280;38819;42.692;23.342;2023-06-10T01:15:49;94903.97;;;20.02;72.48
52957;BME280;38819;42.692;23.342;2023-06-10T01:18:15;94918.09;;;20.04;72.72
52957;BME280;38819;42.692;23.342;2023-06-10T01:20:43;94913.78;;;20.03;72.51
52957;BME280;38819;42.692;23.342;2023-06-10T01:23:10;94905.94;;;20.02;72.88
52957;BME280;38819;42.692;23.342;2023-06-10T01:25:40;94914.44;;;19.96;73.05
52957;BME280;38819;42.692;23.342;2023-06-10T01:28:22;94902.94;;;19.91;73.65
52957;BME280;38819;42.692;23.342;2023-06-10T01:33:41;94912.53;;;19.81;74.22
52957;BME280;38819;42.692;23.342;2023-06-10T01:36:08;94909.63;;;19.74;74.23
52957;BME280;38819;42.692;23.342;2023-06-10T01:38:42;94914.84;;;19.79;74.24
52957;BME280;38819;42.692;23.342;2023-06-10T01:41:10;94904.19;;;19.93;73.83
52957;BME280;38819;42.692;23.342;2023-06-10T01:43:38;94902.31;;;19.97;73.79
52957;BME280;38819;42.692;23.342;2023-06-10T01:46:04;94899.50;;;19.94;74.18
52957;BME280;38819;42.692;23.342;2023-06-10T01:48:29;94901.88;;;19.95;73.77
52957;BME280;38819;42.692;23.342;2023-06-10T01:50:55;94894.16;;;20.01;73.68
52957;BME280;38819;42.692;23.342;2023-06-10T01:53:22;94896.16;;;20.04;73.97
52957;BME280;38819;42.692;23.342;2023-06-10T01:55:47;94888.81;;;20.08;73.37
52957;BME280;38819;42.692;23.342;2023-06-10T01:58:13;94888.97;;;20.15;73.19
52957;BME280;38819;42.692;23.342;2023-06-10T02:00:38;94885.06;;;20.16;73.56
52957;BME280;38819;42.692;23.342;2023-06-10T02:03:03;94879.88;;;20.11;73.50
52957;BME280;38819;42.692;23.342;2023-06-10T02:05:29;94878.72;;;20.12;73.70
52957;BME280;38819;42.692;23.342;2023-06-10T02:07:54;94883.84;;;20.14;73.64
52957;BME280;38819;42.692;23.342;2023-06-10T02:10:20;94879.94;;;20.15;73.73
52957;BME280;38819;42.692;23.342;2023-06-10T02:12:45;94892.56;;;20.20;73.65
52957;BME280;38819;42.692;23.342;2023-06-10T02:15:10;94890.97;;;20.18;73.81
52957;BME280;38819;42.692;23.342;2023-06-10T02:17:36;94882.81;;;20.22;73.47
52957;BME280;38819;42.692;23.342;2023-06-10T02:20:03;94888.25;;;20.18;73.73
52957;BME280;38819;42.692;23.342;2023-06-10T02:22:32;94884.78;;;20.22;73.46
52957;BME280;38819;42.692;23.342;2023-06-10T02:24:57;94872.44;;;20.12;73.67
52957;BME280;38819;42.692;23.342;2023-06-10T02:27:23;94871.22;;;20.09;73.97
52957;BME280;38819;42.692;23.342;2023-06-10T02:29:48;94867.97;;;20.04;74.26
52957;BME280;38819;42.692;23.342;2023-06-10T02:32:13;94866.75;;;20.01;74.51
52957;BME280;38819;42.692;23.342;2023-06-10T02:34:39;94867.47;;;19.98;74.83
52957;BME280;38819;42.692;23.342;2023-06-10T02:37:05;94866.31;;;19.99;74.76
52957;BME280;38819;42.692;23.342;2023-06-10T02:39:30;94867.97;;;20.04;74.35
52957;BME280;38819;42.692;23.342;2023-06-10T02:41:56;94873.09;;;20.05;74.49
52957;BME280;38819;42.692;23.342;2023-06-10T02:44:21;94869.41;;;19.97;74.78
52957;BME280;38819;42.692;23.342;2023-06-10T02:46:46;94860.09;;;20.02;74.58
52957;BME280;38819;42.692;23.342;2023-06-10T02:49:12;94848.44;;;20.05;74.52
52957;BME280;38819;42.692;23.342;2023-06-10T02:51:38;94853.84;;;20.02;74.71
52957;BME280;38819;42.692;23.342;2023-06-10T02:54:04;94849.28;;;20.09;74.15
52957;BME280;38819;42.692;23.342;2023-06-10T02:56:30;94856.28;;;20.07;74.54
52957;BME280;38819;42.692;23.342;2023-06-10T02:58:55;94853.38;;;19.99;74.89
52957;BME280;38819;42.692;23.342;2023-06-10T03:01:21;94862.06;;;20.02;75.50
52957;BME280;38819;42.692;23.342;2023-06-10T03:03:46;94860.09;;;20.02;75.53
52957;BME280;38819;42.692;23.342;2023-06-10T03:06:13;94865.22;;;20.04;75.49
52957;BME280;38819;42.692;23.342;2023-06-10T03:08:39;94854.94;;;19.97;76.22
52957;BME280;38819;42.692;23.342;2023-06-10T03:11:05;94856.59;;;20.02;75.96
52957;BME280;38819;42.692;23.342;2023-06-10T03:13:32;94860.41;;;19.97;76.21
52957;BME280;38819;42.692;23.342;2023-06-10T03:15:57;94869.84;;;19.99;75.46
52957;BME280;38819;42.692;23.342;2023-06-10T03:18:25;94869.94;;;20.03;75.23
52957;BME280;38819;42.692;23.342;2023-06-10T03:20:51;94873.47;;;20.04;75.44
52957;BME280;38819;42.692;23.342;2023-06-10T03:23:17;94858.59;;;19.85;75.48
52957;BME280;38819;42.692;23.342;2023-06-10T03:25:44;94874.16;;;19.61;79.26
52957;BME280;38819;42.692;23.342;2023-06-10T03:28:09;94881.59;;;19.45;80.28
52957;BME280;38819;42.692;23.342;2023-06-10T03:30:35;94892.03;;;19.39;80.46
52957;BME280;38819;42.692;23.342;2023-06-10T03:33:00;94893.81;;;19.32;81.55
52957;BME280;38819;42.692;23.342;2023-06-10T03:35:26;94889.34;;;19.07;82.58
52957;BME280;38819;42.692;23.342;2023-06-10T03:37:52;94899.06;;;18.89;82.11
52957;BME280;38819;42.692;23.342;2023-06-10T03:40:17;94906.22;;;18.94;81.83
52957;BME280;38819;42.692;23.342;2023-06-10T03:42:43;94897.66;;;18.95;81.17
52957;BME280;38819;42.692;23.342;2023-06-10T03:45:09;94889.88;;;18.97;79.94
52957;BME280;38819;42.692;23.342;2023-06-10T03:47:35;94892.53;;;18.94;78.99
52957;BME280;38819;42.692;23.342;2023-06-10T03:50:03;94887.94;;;18.82;79.07
52957;BME280;38819;42.692;23.342;2023-06-10T03:52:30;94890.84;;;18.89;78.88
52957;BME280;38819;42.692;23.342;2023-06-10T03:54:56;94885.38;;;18.89;78.64
52957;BME280;38819;42.692;23.342;2023-06-10T03:57:21;94895.34;;;18.97;78.80
52957;BME280;38819;42.692;23.342;2023-06-10T03:59:46;94881.16;;;18.92;78.87
52957;BME280;38819;42.692;23.342;2023-06-10T04:02:12;94880.88;;;18.97;78.66
52957;BME280;38819;42.692;23.342;2023-06-10T04:04:37;94886.38;;;18.97;78.00
52957;BME280;38819;42.692;23.342;2023-06-10T04:07:04;94886.78;;;18.99;77.66
52957;BME280;38819;42.692;23.342;2023-06-10T04:09:30;94887.69;;;19.03;77.51
52957;BME280;38819;42.692;23.342;2023-06-10T04:11:55;94889.09;;;18.97;77.04
52957;BME280;38819;42.692;23.342;2023-06-10T04:14:21;94898.91;;;18.98;77.31
52957;BME280;38819;42.692;23.342;2023-06-10T04:16:46;94899.00;;;19.01;77.72
52957;BME280;38819;42.692;23.342;2023-06-10T04:19:12;94896.53;;;18.96;77.82
52957;BME280;38819;42.692;23.342;2023-06-10T04:21:37;94900.13;;;19.00;77.87
52957;BME280;38819;42.692;23.342;2023-06-10T04:24:03;94902.59;;;19.05;77.18
52957;BME280;38819;42.692;23.342;2023-06-10T04:26:28;94903.31;;;19.18;77.09
52957;BME280;38819;42.692;23.342;2023-06-10T04:28:54;94898.53;;;19.31;76.16
52957;BME280;38819;42.692;23.342;2023-06-10T04:31:19;94898.94;;;19.33;75.80
52957;BME280;38819;42.692;23.342;2023-06-10T04:33:45;94896.38;;;19.40;75.69
52957;BME280;38819;42.692;23.342;2023-06-10T04:36:11;94889.81;;;19.45;75.35
52957;BME280;38819;42.692;23.342;2023-06-10T04:38:36;94893.78;;;19.48;75.45
52957;BME280;38819;42.692;23.342;2023-06-10T04:41:02;94895.16;;;19.57;75.55
52957;BME280;38819;42.692;23.342;2023-06-10T04:43:27;94889.69;;;19.57;75.47
52957;BME280;38819;42.692;23.342;2023-06-10T04:45:54;94894.88;;;19.62;75.77
52957;BME280;38819;42.692;23.342;2023-06-10T04:48:20;94892.69;;;19.68;76.12
52957;BME280;38819;42.692;23.342;2023-06-10T04:50:45;94902.53;;;19.73;76.02
52957;BME280;38819;42.692;23.342;2023-06-10T04:53:11;94899.56;;;19.78;75.74
52957;BME280;38819;42.692;23.342;2023-06-10T04:55:36;94895.31;;;19.80;75.33
52957;BME280;38819;42.692;23.342;2023-06-10T04:58:01;94893.88;;;19.87;75.49
52957;BME280;38819;42.692;23.342;2023-06-10T05:00:27;94893.28;;;19.97;74.91
52957;BME280;38819;42.692;23.342;2023-06-10T05:02:53;94892.50;;;19.96;74.79
52957;BME280;38819;42.692;23.342;2023-06-10T05:05:18;94887.81;;;19.97;74.08
52957;BME280;38819;42.692;23.342;2023-06-10T05:07:44;94887.16;;;20.04;74.27
52957;BME280;38819;42.692;23.342;2023-06-10T05:10:10;94889.84;;;20.00;74.42
52957;BME280;38819;42.692;23.342;2023-06-10T05:12:38;94888.00;;;20.08;74.34
52957;BME280;38819;42.692;23.342;2023-06-10T05:15:05;94889.25;;;20.10;74.65
52957;BME280;38819;42.692;23.342;2023-06-10T05:17:30;94889.31;;;20.14;74.42
52957;BME280;38819;42.692;23.342;2023-06-10T05:19:56;94884.31;;;20.20;74.26
52957;BME280;38819;42.692;23.342;2023-06-10T05:22:21;94883.66;;;20.26;74.50
52957;BME280;38819;42.692;23.342;2023-06-10T05:24:49;94879.91;;;20.34;73.92
52957;BME280;38819;42.692;23.342;2023-06-10T05:27:14;94891.16;;;20.49;73.80
52957;BME280;38819;42.692;23.342;2023-06-10T05:29:40;94891.09;;;20.45;73.62
52957;BME280;38819;42.692;23.342;2023-06-10T05:32:06;94897.06;;;20.51;73.56
52957;BME280;38819;42.692;23.342;2023-06-10T05:34:31;94903.13;;;20.60;73.37
52957;BME280;38819;42.692;23.342;2023-06-10T05:36:57;94895.03;;;20.67;73.04
52957;BME280;38819;42.692;23.342;2023-06-10T05:39:23;94895.47;;;20.69;73.10
52957;BME280;38819;42.692;23.342;2023-06-10T05:41:48;94897.91;;;20.75;73.22
52957;BME280;38819;42.692;23.342;2023-06-10T05:44:14;94899.38;;;20.68;72.89
52957;BME280;38819;42.692;23.342;2023-06-10T05:46:39;94899.00;;;20.70;72.68
52957;BME280;38819;42.692;23.342;2023-06-10T05:49:04;94896.13;;;20.63;72.83
52957;BME280;38819;42.692;23.342;2023-06-10T05:51:30;94899.13;;;20.58;73.50
52957;BME280;38819;42.692;23.342;2023-06-10T05:53:55;94895.91;;;20.52;73.38
52957;BME280;38819;42.692;23.342;2023-06-10T05:56:21;94899.81;;;20.51;73.75
52957;BME280;38819;42.692;23.342;2023-06-10T05:58:51;94906.00;;;20.67;73.18
52957;BME280;38819;42.692;23.342;2023-06-10T06:01:16;94901.41;;;20.71;72.29
52957;BME280;38819;42.692;23.342;2023-06-10T06:03:42;94906.00;;;20.48;73.66
52957;BME280;38819;42.692;23.342;2023-06-10T06:06:07;94911.59;;;20.51;74.32
52957;BME280;38819;42.692;23.342;2023-06-10T06:08:33;94912.31;;;20.48;74.38
52957;BME280;38819;42.692;23.342;2023-06-10T06:10:58;94906.16;;;20.55;74.14
52957;BME280;38819;42.692;23.342;2023-06-10T06:13:24;94912.78;;;20.54;74.29
52957;BME280;38819;42.692;23.342;2023-06-10T06:15:50;94904.56;;;20.54;74.35
52957;BME280;38819;42.692;23.342;2023-06-10T06:18:15;94903.69;;;20.69;73.66
52957;BME280;38819;42.692;23.342;2023-06-10T06:20:41;94904.13;;;20.71;73.93
52957;BME280;38819;42.692;23.342;2023-06-10T06:23:06;94906.22;;;20.78;73.68
52957;BME280;38819;42.692;23.342;2023-06-10T06:25:35;94906.34;;;20.85;73.39
52957;BME280;38819;42.692;23.342;2023-06-10T06:28:01;94907.22;;;20.93;72.87
52957;BME280;38819;42.692;23.342;2023-06-10T06:30:26;94917.25;;;20.82;73.39
52957;BME280;38819;42.692;23.342;2023-06-10T06:32:52;94917.25;;;20.82;73.57
52957;BME280;38819;42.692;23.342;2023-06-10T06:35:17;94913.84;;;20.88;71.40
52957;BME280;38819;42.692;23.342;2023-06-10T06:37:43;94909.44;;;20.84;71.01
52957;BME280;38819;42.692;23.342;2023-06-10T06:40:08;94909.00;;;20.82;71.05
52957;BME280;38819;42.692;23.342;2023-06-10T06:42:34;94906.22;;;20.78;72.20
52957;BME280;38819;42.692;23.342;2023-06-10T06:44:59;94900.53;;;20.67;72.72
52957;BME280;38819;42.692;23.342;2023-06-10T06:47:24;94903.75;;;20.73;72.49
52957;BME280;38819;42.692;23.342;2023-06-10T06:49:51;94897.84;;;20.71;71.22
52957;BME280;38819;42.692;23.342;2023-06-10T06:52:17;94901.00;;;20.73;70.28
52957;BME280;38819;42.692;23.342;2023-06-10T06:54:43;94898.09;;;20.85;70.07
52957;BME280;38819;42.692;23.342;2023-06-10T06:57:08;94894.97;;;20.64;70.27
52957;BME280;38819;42.692;23.342;2023-06-10T06:59:33;94900.72;;;20.78;70.39
52957;BME280;38819;42.692;23.342;2023-06-10T07:01:59;94899.31;;;20.88;69.20
52957;BME280;38819;42.692;23.342;2023-06-10T07:04:25;94902.25;;;20.99;68.83
52957;BME280;38819;42.692;23.342;2023-06-10T07:06:50;94889.97;;;20.92;67.84
52957;BME280;38819;42.692;23.342;2023-06-10T07:09:16;94897.28;;;21.08;67.87
52957;BME280;38819;42.692;23.342;2023-06-10T07:11:42;94906.47;;;21.19;67.67
52957;BME280;38819;42.692;23.342;2023-06-10T07:14:07;94900.25;;;21.22;67.26
52957;BME280;38819;42.692;23.342;2023-06-10T07:16:33;94896.47;;;21.31;65.76
52957;BME280;38819;42.692;23.342;2023-06-10T07:18:59;94893.81;;;21.38;65.57
52957;BME280;38819;42.692;23.342;2023-06-10T07:21:24;94895.16;;;21.48;63.99
52957;BME280;38819;42.692;23.342;2023-06-10T07:23:50;94887.59;;;21.41;62.99
52957;BME280;38819;42.692;23.342;2023-06-10T07:26:19;94880.13;;;21.41;61.23
52957;BME280;38819;42.692;23.342;2023-06-10T07:28:44;94881.72;;;21.42;61.21
52957;BME280;38819;42.692;23.342;2023-06-10T07:31:10;94889.50;;;21.63;61.29
52957;BME280;38819;42.692;23.342;2023-06-10T07:33:37;94886.22;;;21.54;60.13
52957;BME280;38819;42.692;23.342;2023-06-10T07:36:05;94891.56;;;21.70;60.71
52957;BME280;38819;42.692;23.342;2023-06-10T07:38:30;94890.38;;;21.71;59.16
52957;BME280;38819;42.692;23.342;2023-06-10T07:40:55;94886.28;;;21.88;58.49
52957;BME280;38819;42.692;23.342;2023-06-10T07:43:21;94881.25;;;21.94;58.49
52957;BME280;38819;42.692;23.342;2023-06-10T07:45:47;94877.44;;;22.02;57.70
52957;BME280;38819;42.692;23.342;2023-06-10T07:48:13;94885.59;;;21.95;56.76
52957;BME280;38819;42.692;23.342;2023-06-10T07:50:39;94889.88;;;21.92;56.66
52957;BME280;38819;42.692;23.342;2023-06-10T07:53:04;94884.13;;;22.05;56.69
52957;BME280;38819;42.692;23.342;2023-06-10T07:55:30;94876.59;;;21.98;56.46
52957;BME280;38819;42.692;23.342;2023-06-10T07:57:55;94875.81;;;21.97;54.69
52957;BME280;38819;42.692;23.342;2023-06-10T08:00:21;94874.31;;;22.04;54.30
52957;BME280;38819;42.692;23.342;2023-06-10T08:02:46;94869.31;;;22.13;53.40
52957;BME280;38819;42.692;23.342;2023-06-10T08:05:12;94870.25;;;22.28;53.88
52957;BME280;38819;42.692;23.342;2023-06-10T08:07:39;94869.19;;;22.36;53.80
52957;BME280;38819;42.692;23.342;2023-06-10T08:10:05;94867.84;;;22.23;55.62
52957;BME280;38819;42.692;23.342;2023-06-10T08:12:32;94867.88;;;22.26;56.09
52957;BME280;38819;42.692;23.342;2023-06-10T08:14:58;94864.34;;;22.26;55.62
52957;BME280;38819;42.692;23.342;2023-06-10T08:17:23;94857.44;;;22.39;55.55
52957;BME280;38819;42.692;23.342;2023-06-10T08:19:49;94860.91;;;22.32;56.41
52957;BME280;38819;42.692;23.342;2023-06-10T08:22:15;94859.34;;;22.35;56.44
52957;BME280;38819;42.692;23.342;2023-06-10T08:24:40;94860.59;;;22.41;56.11
52957;BME280;38819;42.692;23.342;2023-06-10T08:27:05;94853.25;;;22.52;55.50
52957;BME280;38819;42.692;23.342;2023-06-10T08:29:31;94857.00;;;22.74;53.17
52957;BME280;38819;42.692;23.342;2023-06-10T08:31:57;94847.91;;;22.70;52.76
52957;BME280;38819;42.692;23.342;2023-06-10T08:34:23;94852.88;;;22.54;51.93
52957;BME280;38819;42.692;23.342;2023-06-10T08:36:48;94836.84;;;22.67;52.07
52957;BME280;38819;42.692;23.342;2023-06-10T08:39:18;94838.47;;;22.71;52.63
52957;BME280;38819;42.692;23.342;2023-06-10T08:42:04;94839.75;;;22.81;52.40
52957;BME280;38819;42.692;23.342;2023-06-10T08:44:35;94838.94;;;22.77;52.56
52957;BME280;38819;42.692;23.342;2023-06-10T08:47:08;94837.75;;;22.78;52.82
52957;BME280;38819;42.692;23.342;2023-06-10T08:49:38;94836.25;;;22.88;53.66
52957;BME280;38819;42.692;23.342;2023-06-10T08:52:06;94831.22;;;22.97;52.98
52957;BME280;38819;42.692;23.342;2023-06-10T08:54:33;94837.50;;;22.98;52.98
52957;BME280;38819;42.692;23.342;2023-06-10T08:57:05;94820.53;;;22.88;53.18
52957;BME280;38819;42.692;23.342;2023-06-10T08:59:34;94830.56;;;23.11;53.34
52957;BME280;38819;42.692;23.342;2023-06-10T09:02:00;94825.56;;;23.31;52.69
52957;BME280;38819;42.692;23.342;2023-06-10T09:04:27;94814.25;;;23.47;52.19
52957;BME280;38819;42.692;23.342;2023-06-10T09:06:53;94821.81;;;23.57;51.75
52957;BME280;38819;42.692;23.342;2023-06-10T09:09:19;94821.38;;;23.55;51.00
52957;BME280;38819;42.692;23.342;2023-06-10T09:11:48;94815.06;;;23.47;51.49
52957;BME280;38819;42.692;23.342;2023-06-10T09:14:13;94815.28;;;23.21;50.49
52957;BME280;38819;42.692;23.342;2023-06-10T09:16:39;94814.84;;;23.19;50.22
52957;BME280;38819;42.692;23.342;2023-06-10T09:19:05;94816.72;;;23.04;50.29
52957;BME280;38819;42.692;23.342;2023-06-10T09:21:33;94807.09;;;22.83;50.85
52957;BME280;38819;42.692;23.342;2023-06-10T09:23:59;94813.47;;;22.91;51.71
52957;BME280;38819;42.692;23.342;2023-06-10T09:26:29;94809.97;;;22.98;51.64
52957;BME280;38819;42.692;23.342;2023-06-10T09:29:04;94805.66;;;23.00;51.70
52957;BME280;38819;42.692;23.342;2023-06-10T09:31:31;94806.53;;;23.08;50.82
52957;BME280;38819;42.692;23.342;2023-06-10T09:34:11;94801.88;;;23.19;50.96
52957;BME280;38819;42.692;23.342;2023-06-10T09:36:38;94805.91;;;23.33;51.22
52957;BME280;38819;42.692;23.342;2023-06-10T09:39:04;94802.00;;;23.37;51.02
52957;BME280;38819;42.692;23.342;2023-06-10T09:41:34;94798.06;;;23.38;51.14
52957;BME280;38819;42.692;23.342;2023-06-10T09:44:00;94794.94;;;23.43;51.31
52957;BME280;38819;42.692;23.342;2023-06-10T09:46:31;94790.16;;;23.29;50.27
52957;BME280;38819;42.692;23.342;2023-06-10T09:48:58;94795.25;;;23.24;49.25
52957;BME280;38819;42.692;23.342;2023-06-10T09:51:23;94794.44;;;23.23;48.73
52957;BME280;38819;42.692;23.342;2023-06-10T09:53:51;94790.94;;;23.34;49.10
52957;BME280;38819;42.692;23.342;2023-06-10T09:56:17;94787.41;;;23.33;49.70
52957;BME280;38819;42.692;23.342;2023-06-10T09:58:45;94789.38;;;23.29;48.17
52957;BME280;38819;42.692;23.342;2023-06-10T10:01:13;94783.53;;;23.48;49.11
52957;BME280;38819;42.692;23.342;2023-06-10T10:03:48;94783.25;;;23.68;49.52
52957;BME280;38819;42.692;23.342;2023-06-10T10:06:15;94776.59;;;23.76;50.00
52957;BME280;38819;42.692;23.342;2023-06-10T10:08:41;94777.72;;;23.68;50.32
52957;BME280;38819;42.692;23.342;2023-06-10T10:11:06;94778.13;;;23.66;51.18
52957;BME280;38819;42.692;23.342;2023-06-10T10:13:33;94769.00;;;23.52;50.99
52957;BME280;38819;42.692;23.342;2023-06-10T10:16:04;94759.97;;;23.65;50.34
52957;BME280;38819;42.692;23.342;2023-06-10T10:18:31;94764.72;;;23.72;49.43
52957;BME280;38819;42.692;23.342;2023-06-10T10:21:01;94763.56;;;23.77;49.44
52957;BME280;38819;42.692;23.342;2023-06-10T10:24:01;94759.66;;;23.81;49.19
52957;BME280;38819;42.692;23.342;2023-06-10T10:26:29;94758.94;;;23.92;49.78
52957;BME280;38819;42.692;23.342;2023-06-10T10:29:38;94764.50;;;24.13;50.07
52957;BME280;38819;42.692;23.342;2023-06-10T10:31:44;94746.00;;;24.25;49.80
52957;BME280;38819;42.692;23.342;2023-06-10T10:34:16;94747.16;;;24.23;48.26
52957;BME280;38819;42.692;23.342;2023-06-10T10:36:44;94757.38;;;24.12;47.52
52957;BME280;38819;42.692;23.342;2023-06-10T10:39:10;94759.69;;;23.92;47.57
52957;BME280;38819;42.692;23.342;2023-06-10T10:41:36;94746.69;;;23.82;47.99
52957;BME280;38819;42.692;23.342;2023-06-10T10:44:03;94755.38;;;23.84;48.49
52957;BME280;38819;42.692;23.342;2023-06-10T10:46:42;94749.00;;;23.76;47.27
52957;BME280;38819;42.692;23.342;2023-06-10T10:49:07;94740.34;;;23.81;46.84
52957;BME280;38819;42.692;23.342;2023-06-10T10:51:35;94742.78;;;23.94;47.38
52957;BME280;38819;42.692;23.342;2023-06-10T10:54:14;94739.66;;;24.02;47.52
52957;BME280;38819;42.692;23.342;2023-06-10T10:56:40;94737.28;;;24.08;46.93
52957;BME280;38819;42.692;23.342;2023-06-10T10:59:25;94729.44;;;24.28;46.31
52957;BME280;38819;42.692;23.342;2023-06-10T11:02:07;94733.00;;;24.39;45.61
52957;BME280;38819;42.692;23.342;2023-06-10T11:04:33;94734.56;;;24.51;45.22
52957;BME280;38819;42.692;23.342;2023-06-10T11:07:05;94733.41;;;24.70;46.33
52957;BME280;38819;42.692;23.342;2023-06-10T11:09:31;94723.16;;;24.74;47.28
52957;BME280;38819;42.692;23.342;2023-06-10T11:11:57;94715.28;;;24.76;47.89
52957;BME280;38819;42.692;23.342;2023-06-10T11:14:27;94718.03;;;24.69;47.09
52957;BME280;38819;42.692;23.342;2023-06-10T11:16:59;94708.16;;;24.79;46.53
52957;BME280;38819;42.692;23.342;2023-06-10T11:19:37;94707.75;;;24.81;46.99
52957;BME280;38819;42.692;23.342;2023-06-10T11:22:06;94710.91;;;24.79;47.11
52957;BME280;38819;42.692;23.342;2023-06-10T11:24:33;94709.31;;;24.89;46.20
52957;BME280;38819;42.692;23.342;2023-06-10T11:27:17;94706.16;;;24.94;44.98
52957;BME280;38819;42.692;23.342;2023-06-10T11:30:18;94692.34;;;24.94;45.22
52957;BME280;38819;42.692;23.342;2023-06-10T11:32:44;94691.53;;;24.97;45.55
52957;BME280;38819;42.692;23.342;2023-06-10T11:35:10;94698.66;;;24.87;46.50
52957;BME280;38819;42.692;23.342;2023-06-10T11:37:36;94693.16;;;24.80;46.87
52957;BME280;38819;42.692;23.342;2023-06-10T11:40:02;94684.88;;;24.66;46.20
52957;BME280;38819;42.692;23.342;2023-06-10T11:42:27;94675.41;;;24.52;45.59
52957;BME280;38819;42.692;23.342;2023-06-10T11:44:54;94685.28;;;24.46;45.01
52957;BME280;38819;42.692;23.342;2023-06-10T11:47:20;94691.59;;;24.43;44.12
52957;BME280;38819;42.692;23.342;2023-06-10T11:49:56;94686.88;;;24.54;42.90
52957;BME280;38819;42.692;23.342;2023-06-10T11:52:31;94677.78;;;24.54;43.64
52957;BME280;38819;42.692;23.342;2023-06-10T11:54:58;94680.19;;;24.66;43.80
52957;BME280;38819;42.692;23.342;2023-06-10T11:57:24;94682.53;;;24.71;41.79
52957;BME280;38819;42.692;23.342;2023-06-10T11:59:49;94672.66;;;24.74;41.26
52957;BME280;38819;42.692;23.342;2023-06-10T12:02:16;94680.94;;;24.81;42.44
52957;BME280;38819;42.692;23.342;2023-06-10T12:04:42;94673.84;;;24.80;40.11
52957;BME280;38819;42.692;23.342;2023-06-10T12:07:07;94670.28;;;24.83;39.17
52957;BME280;38819;42.692;23.342;2023-06-10T12:09:32;94673.81;;;24.87;39.47
52957;BME280;38819;42.692;23.342;2023-06-10T12:12:03;94676.53;;;25.02;38.98
52957;BME280;38819;42.692;23.342;2023-06-10T12:15:08;94674.16;;;25.11;37.69
52957;BME280;38819;42.692;23.342;2023-06-10T12:20:03;94661.56;;;25.03;37.68
52957;BME280;38819;42.692;23.342;2023-06-10T12:22:39;94668.28;;;24.87;37.55
52957;BME280;38819;42.692;23.342;2023-06-10T12:25:06;94672.22;;;24.93;38.32
52957;BME280;38819;42.692;23.342;2023-06-10T12:27:33;94663.53;;;24.95;38.15
52957;BME280;38819;42.692;23.342;2023-06-10T12:30:00;94669.84;;;25.03;36.99
52957;BME280;38819;42.692;23.342;2023-06-10T12:32:42;94660.75;;;25.02;36.96
52957;BME280;38819;42.692;23.342;2023-06-10T12:35:09;94662.28;;;25.14;37.12
52957;BME280;38819;42.692;23.342;2023-06-10T12:37:35;94654.00;;;25.18;37.80
52957;BME280;38819;42.692;23.342;2023-06-10T12:40:04;94642.97;;;25.07;38.08
52957;BME280;38819;42.692;23.342;2023-06-10T12:42:31;94642.19;;;25.10;37.82
52957;BME280;38819;42.692;23.342;2023-06-10T12:44:59;94638.22;;;25.14;37.35
52957;BME280;38819;42.692;23.342;2023-06-10T12:47:32;94642.97;;;25.10;37.23
52957;BME280;38819;42.692;23.342;2023-06-10T12:50:00;94645.75;;;25.07;37.37
52957;BME280;38819;42.692;23.342;2023-06-10T12:52:26;94651.28;;;25.07;37.04
52957;BME280;38819;42.692;23.342;2023-06-10T12:54:53;94647.31;;;25.11;37.36
52957;BME280;38819;42.692;23.342;2023-06-10T12:57:19;94653.59;;;25.19;36.74